createdAt,value
2023-01-27T00:00:52.083Z,43.70
2023-01-27T00:05:55.669Z,43.60
2023-01-27T00:11:20.933Z,43.60
2023-01-27T00:16:24.109Z,43.50
2023-01-27T00:21:44.732Z,43.30
2023-01-27T00:26:49.225Z,43.20
2023-01-27T00:32:09.753Z,43.20
2023-01-27T00:37:12.872Z,43.30
2023-01-27T00:42:17.418Z,43.40
2023-01-27T00:47:20.490Z,43.50
2023-01-27T00:52:23.594Z,43.50
2023-01-27T00:57:28.049Z,43.40
2023-01-27T01:02:31.203Z,43.50
2023-01-27T01:07:34.297Z,43.40
2023-01-27T01:12:38.778Z,43.40
2023-01-27T01:17:41.990Z,43.40
2023-01-27T01:22:45.096Z,43.40
2023-01-27T01:27:49.598Z,43.40
2023-01-27T01:32:52.731Z,43.60
2023-01-27T01:37:56.118Z,43.50
2023-01-27T01:43:02.374Z,43.40
2023-01-27T01:48:10.545Z,43.30
2023-01-27T01:53:13.898Z,43.30
2023-01-27T01:58:20.594Z,43.40
2023-01-27T02:03:24.859Z,43.50
2023-01-27T02:08:32.038Z,43.30
2023-01-27T02:13:36.473Z,43.50
2023-01-27T02:18:41.322Z,44.00
2023-01-27T02:23:50.668Z,43.30
2023-01-27T02:28:57.220Z,43.30
2023-01-27T02:34:06.017Z,43.20
2023-01-27T02:39:11.391Z,43.20
2023-01-27T02:44:15.920Z,43.20
2023-01-27T02:49:19.017Z,43.30
2023-01-27T02:54:22.123Z,43.30
2023-01-27T02:59:26.665Z,43.30
2023-01-27T03:04:29.799Z,43.20
2023-01-27T03:09:33.060Z,43.30
2023-01-27T03:14:55.318Z,43.20
2023-01-27T03:19:58.456Z,43.20
2023-01-27T03:25:01.641Z,43.00
2023-01-27T03:30:08.160Z,43.00
2023-01-27T03:35:11.586Z,43.10
2023-01-27T03:40:33.420Z,43.10
2023-01-27T03:45:55.562Z,43.10
2023-01-27T03:50:59.021Z,43.10
2023-01-27T03:56:02.278Z,43.10
2023-01-27T04:01:08.652Z,43.10
2023-01-27T04:06:31.588Z,43.10
2023-01-27T04:11:52.508Z,43.10
2023-01-27T04:17:00.155Z,43.10
2023-01-27T04:22:04.078Z,43.10
2023-01-27T04:27:09.121Z,43.20
2023-01-27T04:32:15.243Z,43.20
2023-01-27T04:37:18.359Z,43.10
2023-01-27T04:42:21.671Z,43.30
2023-01-27T04:47:26.260Z,43.20
2023-01-27T04:52:29.551Z,43.30
2023-01-27T04:57:32.677Z,43.30
2023-01-27T05:02:37.187Z,43.30
2023-01-27T05:07:40.582Z,43.50
2023-01-27T05:12:43.695Z,43.30
2023-01-27T05:17:48.235Z,43.40
2023-01-27T05:23:12.774Z,43.30
2023-01-27T05:28:15.981Z,43.50
2023-01-27T05:33:20.538Z,43.60
2023-01-27T05:38:23.777Z,43.40
2023-01-27T05:43:27.776Z,43.60
2023-01-27T05:48:32.756Z,43.40
2023-01-27T05:53:36.518Z,43.40
2023-01-27T05:58:40.486Z,43.20
2023-01-27T06:03:46.360Z,43.20
2023-01-27T06:08:50.311Z,43.20
2023-01-27T06:13:54.715Z,43.10
2023-01-27T06:18:59.834Z,43.10
2023-01-27T06:24:04.326Z,43.10
2023-01-27T06:29:07.590Z,43.60
2023-01-27T06:34:12.066Z,43.50
2023-01-27T06:39:16.645Z,43.40
2023-01-27T06:44:19.731Z,43.50
2023-01-27T06:49:24.684Z,43.40
2023-01-27T06:54:27.764Z,43.40
2023-01-27T06:59:30.917Z,43.30
2023-01-27T07:04:35.378Z,43.30
2023-01-27T07:09:51.674Z,43.40
2023-01-27T07:14:55.799Z,43.40
2023-01-27T07:20:00.335Z,43.30
2023-01-27T07:25:03.485Z,43.10
2023-01-27T07:30:07.526Z,43.10
2023-01-27T07:35:12.113Z,43.20
2023-01-27T07:40:15.811Z,43.30
2023-01-27T07:45:19.370Z,43.20
2023-01-27T07:50:23.859Z,43.20
2023-01-27T07:55:27.003Z,43.20
2023-01-27T08:00:30.806Z,43.20
2023-01-27T08:05:36.057Z,43.10
2023-01-27T08:10:39.140Z,43.00
2023-01-27T08:15:42.267Z,42.90
2023-01-27T08:20:46.802Z,43.10
2023-01-27T08:25:53.068Z,43.10
2023-01-27T08:30:56.312Z,43.10
2023-01-27T08:36:03.858Z,43.20
2023-01-27T08:41:08.154Z,43.20
2023-01-27T08:46:11.771Z,43.30
2023-01-27T08:51:16.447Z,43.30
2023-01-27T08:56:19.978Z,43.40
2023-01-27T09:01:23.096Z,43.30
2023-01-27T09:06:27.714Z,43.40
2023-01-27T09:11:30.793Z,43.50
2023-01-27T09:16:34.060Z,43.60
2023-01-27T09:21:38.594Z,43.50
2023-01-27T09:26:41.719Z,43.30
2023-01-27T09:31:45.147Z,43.40
2023-01-27T09:36:52.616Z,43.40
2023-01-27T09:42:18.518Z,43.30
2023-01-27T09:47:43.735Z,43.20
2023-01-27T09:53:23.655Z,43.30
2023-01-27T09:58:38.804Z,43.50
2023-01-27T10:04:13.781Z,43.40
2023-01-27T10:10:04.207Z,43.50
2023-01-27T10:15:20.194Z,43.50
2023-01-27T10:20:30.751Z,43.60
2023-01-27T10:25:47.821Z,43.50
2023-01-27T10:30:57.100Z,43.50
2023-01-27T10:36:04.973Z,43.60
2023-01-27T10:41:20.045Z,43.40
2023-01-27T10:46:30.617Z,43.30
2023-01-27T10:51:38.900Z,43.40
2023-01-27T10:56:47.101Z,43.30
2023-01-27T11:01:54.659Z,43.10
2023-01-27T11:06:59.038Z,43.30
2023-01-27T11:12:06.988Z,43.20
2023-01-27T11:17:18.678Z,43.20
2023-01-27T11:22:25.511Z,43.30
2023-01-27T11:27:40.643Z,43.70
2023-01-27T11:32:53.759Z,43.60
2023-01-27T11:38:09.802Z,43.40
2023-01-27T11:43:21.238Z,43.40
2023-01-27T11:48:24.536Z,43.30
2023-01-27T11:53:32.216Z,43.60
2023-01-27T11:58:44.425Z,43.60
2023-01-27T12:03:54.663Z,43.80
2023-01-27T12:08:57.797Z,43.90
2023-01-27T12:14:03.621Z,43.70
2023-01-27T12:19:22.964Z,43.60
2023-01-27T12:24:30.401Z,43.70
2023-01-27T12:29:41.841Z,44.40
2023-01-27T12:34:48.029Z,44.20
2023-01-27T12:39:57.089Z,43.90
2023-01-27T12:45:02.205Z,43.80
2023-01-27T12:50:22.297Z,43.80
2023-01-27T12:55:30.415Z,43.80
2023-01-27T13:00:35.874Z,43.90
2023-01-27T13:05:42.139Z,43.80
2023-01-27T13:10:52.525Z,43.70
2023-01-27T13:16:05.678Z,43.80
2023-01-27T13:21:16.134Z,43.90
2023-01-27T13:26:22.954Z,43.90
2023-01-27T13:31:41.816Z,43.90
2023-01-27T13:36:49.827Z,43.70
2023-01-27T13:41:58.158Z,43.70
2023-01-27T13:47:06.695Z,43.60
2023-01-27T13:52:12.258Z,43.50
2023-01-27T13:57:45.079Z,43.60
2023-01-27T14:03:25.033Z,43.50
2023-01-27T14:08:50.057Z,43.60
2023-01-27T14:14:04.238Z,44.20
2023-01-27T14:19:25.228Z,43.60
2023-01-27T14:24:40.054Z,43.40
2023-01-27T14:29:48.787Z,43.30
2023-01-27T14:35:07.720Z,43.30
2023-01-27T14:40:19.228Z,43.30
2023-01-27T14:45:25.801Z,43.50
2023-01-27T14:50:38.600Z,43.40
2023-01-27T14:55:49.767Z,43.30
2023-01-27T15:01:04.293Z,43.30
2023-01-27T15:06:16.240Z,43.20
2023-01-27T15:11:32.866Z,43.30
2023-01-27T15:16:56.189Z,43.30
2023-01-27T15:22:30.971Z,43.30
2023-01-27T15:27:35.448Z,43.30
2023-01-27T15:32:39.371Z,43.10
2023-01-27T15:38:00.585Z,43.40
2023-01-27T15:43:06.148Z,43.20
2023-01-27T15:48:15.340Z,43.10
2023-01-27T15:53:29.727Z,43.00
2023-01-27T15:58:35.894Z,42.90
2023-01-27T16:03:43.905Z,42.90
2023-01-27T16:08:52.198Z,42.80
2023-01-27T16:14:34.444Z,42.80
2023-01-27T16:19:44.363Z,43.80
2023-01-27T16:24:56.233Z,43.10
2023-01-27T16:30:07.059Z,42.90
2023-01-27T16:35:20.278Z,42.90
2023-01-27T16:40:26.083Z,42.90
2023-01-27T16:45:39.758Z,43.10
2023-01-27T16:50:45.073Z,43.50
2023-01-27T16:56:01.523Z,43.60
2023-01-27T17:01:05.222Z,43.00
2023-01-27T17:06:15.289Z,43.10
2023-01-27T17:11:25.218Z,43.10
2023-01-27T17:16:32.772Z,43.10
2023-01-27T17:21:39.012Z,43.10
2023-01-27T17:26:46.318Z,42.90
2023-01-27T17:31:50.567Z,42.60
2023-01-27T17:37:14.790Z,42.80
2023-01-27T17:42:21.623Z,42.30
2023-01-27T17:47:25.275Z,42.20
2023-01-27T17:52:30.301Z,42.20
2023-01-27T17:57:36.262Z,42.30
2023-01-27T18:02:44.951Z,42.10
2023-01-27T18:07:48.360Z,42.00
2023-01-27T18:12:52.982Z,42.40
2023-01-27T18:17:59.797Z,42.40
2023-01-27T18:23:05.940Z,42.40
2023-01-27T18:28:10.515Z,42.50
2023-01-27T18:33:14.489Z,42.40
2023-01-27T18:38:23.768Z,42.40
2023-01-27T18:43:28.401Z,42.20
2023-01-27T18:48:33.427Z,42.40
2023-01-27T18:53:36.598Z,42.40
2023-01-27T18:58:41.088Z,42.30
2023-01-27T19:03:44.243Z,42.10
2023-01-27T19:08:48.932Z,42.10
2023-01-27T19:13:53.406Z,42.20
2023-01-27T19:18:56.535Z,42.10
2023-01-27T19:23:59.752Z,42.20
2023-01-27T19:29:04.633Z,42.10
2023-01-27T19:34:11.387Z,41.90
2023-01-27T19:39:17.084Z,41.90
2023-01-27T19:44:21.692Z,42.10
2023-01-27T19:49:24.873Z,42.10
2023-01-27T19:54:30.209Z,42.20
2023-01-27T19:59:35.003Z,42.10
2023-01-27T20:04:38.240Z,42.00
2023-01-27T20:09:41.455Z,42.20
2023-01-27T20:14:46.374Z,42.20
2023-01-27T20:19:49.872Z,42.20
2023-01-27T20:24:53.140Z,42.20
2023-01-27T20:29:57.680Z,42.20
2023-01-27T20:35:00.808Z,42.10
2023-01-27T20:40:04.087Z,42.00
2023-01-27T20:45:09.588Z,42.20
2023-01-27T20:50:13.371Z,42.20
2023-01-27T20:55:19.288Z,42.20
2023-01-27T21:00:24.249Z,42.40
2023-01-27T21:05:27.445Z,42.40
2023-01-27T21:10:30.628Z,42.50
2023-01-27T21:15:35.261Z,42.40
2023-01-27T21:20:38.366Z,42.30
2023-01-27T21:25:41.422Z,42.70
2023-01-27T21:30:46.646Z,42.30
2023-01-27T21:35:55.435Z,42.30
2023-01-27T21:41:05.183Z,42.60
2023-01-27T21:46:09.755Z,42.60
2023-01-27T21:51:12.943Z,42.60
2023-01-27T21:56:16.122Z,42.60
2023-01-27T22:01:20.931Z,42.50
2023-01-27T22:06:24.097Z,42.50
2023-01-27T22:11:27.315Z,42.50
2023-01-27T22:16:31.923Z,42.60
2023-01-27T22:21:35.148Z,42.90
2023-01-27T22:26:38.279Z,42.90
2023-01-27T22:31:42.911Z,42.90
2023-01-27T22:36:49.533Z,42.80
2023-01-27T22:41:52.712Z,42.70
2023-01-27T22:46:57.185Z,42.60
2023-01-27T22:52:00.674Z,42.80
2023-01-27T22:57:04.183Z,42.70
2023-01-27T23:02:08.739Z,42.80
2023-01-27T23:07:11.897Z,42.80
2023-01-27T23:12:15.387Z,42.80
2023-01-27T23:17:19.854Z,42.80
2023-01-27T23:22:22.991Z,42.80
2023-01-27T23:27:26.403Z,42.60
2023-01-27T23:32:30.906Z,42.70
2023-01-27T23:37:34.137Z,42.80
2023-01-27T23:42:37.234Z,42.60
2023-01-27T23:47:41.692Z,42.60
2023-01-27T23:52:44.983Z,42.60
2023-01-27T23:57:48.050Z,42.60
